バクー の空港の天気 - METARとTAF

ヘイダル・アリエフ国際空港(バクー) ( UBBB / BAK ) - アゼルバイジャン バクー
飛行場実況気象(Metar)
観測時間06/19 20:30 AZT (06/19 16:30 UTC)
風向・風速北北西 5m/s
視程10km以上
天気現象
なし
気温21℃
湿度73%
気圧1011hPa
METARUBBB 191630Z 33009KT CAVOK 21/16 Q1011 R88/CLRD// NOSIG
過去の天気等 Google飛行場航空写真 Wunderground天気予報

過去48時間のMETAR

飛行場予報(TAF)
発表時間: 6/19 15:04 AZT (6/19 11:04 UTC)
予報対象時間: 19日16時 AZT ~ 20日16時 AZT
風向・風速北西 9m/s 瞬間風速 14m/s
視程10km以上
なし
19日18時 AZT ~ 19日20時 AZT に徐々に
風向・風速北 6m/s
19日20時 AZT ~ 20日10時 AZT に一時的に
風向・風速北西 5m/s
全天の4割程度の雲 雲底高度 370m
少しの積乱雲 雲底高度 1520m
全天の8割程度の雲 雲底高度 3050m
TAF UBBB 191104Z 1912/2012 32018G28KT CAVOK TX26/1912Z TN18/2002Z
BECMG 1914/1916 36012KT
TEMPO 1916/2006 32010KT SCT012 FEW050CB BKN100